Terminal Aerodrome Forecast
Issued by NWS

Home | Current Version | Previous Version | Text Only | Print | Product List | Glossary On
Versions: 1 2 3 4 5 6 7 8 9 10 11 12 13 14 15 16 17 18 19 20 21 22 23 24
000
FTUS45 KREV 032337
TAFTRK
TAF
KTRK 032337Z 0400/0424 25010G18KT P6SM FEW090
     FM040300 VRB03KT P6SM SCT180
     FM041800 24010KT P6SM SCT080 OVC180=

USA.gov is the U.S. government's official web portal to all federal, state and local government web resources and services.